sensor_id;sensor_type;location;lat;lon;timestamp;temperature;humidity
43963;DHT22;29622;45.534;9.242;2023-02-28T00:02:08;10.30;49.80
43963;DHT22;29622;45.534;9.242;2023-02-28T00:07:10;10.70;50.40
43963;DHT22;29622;45.534;9.242;2023-02-28T00:12:10;11.10;51.40
43963;DHT22;29622;45.534;9.242;2023-02-28T00:17:11;11.70;50.60
43963;DHT22;29622;45.534;9.242;2023-02-28T00:22:11;12.00;50.50
43963;DHT22;29622;45.534;9.242;2023-02-28T00:27:12;12.50;50.60
43963;DHT22;29622;45.534;9.242;2023-02-28T00:32:13;13.10;50.80
43963;DHT22;29622;45.534;9.242;2023-02-28T00:37:14;13.10;49.60
43963;DHT22;29622;45.534;9.242;2023-02-28T00:42:15;13.00;49.00
43963;DHT22;29622;45.534;9.242;2023-02-28T00:47:15;13.10;48.90
43963;DHT22;29622;45.534;9.242;2023-02-28T00:52:17;12.50;47.70
43963;DHT22;29622;45.534;9.242;2023-02-28T00:57:18;12.30;47.60
43963;DHT22;29622;45.534;9.242;2023-02-28T01:02:18;12.30;48.00
43963;DHT22;29622;45.534;9.242;2023-02-28T01:07:20;12.20;47.20
43963;DHT22;29622;45.534;9.242;2023-02-28T01:12:20;11.70;46.90
43963;DHT22;29622;45.534;9.242;2023-02-28T01:17:21;11.60;47.50
43963;DHT22;29622;45.534;9.242;2023-02-28T01:22:22;11.60;47.20
43963;DHT22;29622;45.534;9.242;2023-02-28T01:27:23;11.50;47.30
43963;DHT22;29622;45.534;9.242;2023-02-28T01:32:23;11.60;47.90
43963;DHT22;29622;45.534;9.242;2023-02-28T01:37:24;10.90;47.30
43963;DHT22;29622;45.534;9.242;2023-02-28T01:42:25;10.40;47.40
43963;DHT22;29622;45.534;9.242;2023-02-28T01:47:38;9.90;47.30
43963;DHT22;29622;45.534;9.242;2023-02-28T01:52:41;9.50;47.20
43963;DHT22;29622;45.534;9.242;2023-02-28T01:57:48;9.20;47.40
43963;DHT22;29622;45.534;9.242;2023-02-28T02:02:54;9.10;47.90
43963;DHT22;29622;45.534;9.242;2023-02-28T02:07:58;9.10;47.50
43963;DHT22;29622;45.534;9.242;2023-02-28T02:13:18;9.00;47.60
43963;DHT22;29622;45.534;9.242;2023-02-28T02:39:19;10.20;47.80
43963;DHT22;29622;45.534;9.242;2023-02-28T02:50:14;9.90;47.90
43963;DHT22;29622;45.534;9.242;2023-02-28T02:55:17;9.60;48.00
43963;DHT22;29622;45.534;9.242;2023-02-28T03:00:21;10.00;48.50
43963;DHT22;29622;45.534;9.242;2023-02-28T03:05:26;10.70;48.70
43963;DHT22;29622;45.534;9.242;2023-02-28T03:10:35;10.90;47.60
43963;DHT22;29622;45.534;9.242;2023-02-28T03:26:07;11.50;46.10
43963;DHT22;29622;45.534;9.242;2023-02-28T03:31:21;11.00;46.50
43963;DHT22;29622;45.534;9.242;2023-02-28T03:36:29;10.40;46.50
43963;DHT22;29622;45.534;9.242;2023-02-28T03:41:37;9.70;46.80
43963;DHT22;29622;45.534;9.242;2023-02-28T03:46:43;9.30;47.30
43963;DHT22;29622;45.534;9.242;2023-02-28T03:51:47;9.40;47.50
43963;DHT22;29622;45.534;9.242;2023-02-28T04:02:23;9.00;47.70
43963;DHT22;29622;45.534;9.242;2023-02-28T04:07:24;8.70;47.60
43963;DHT22;29622;45.534;9.242;2023-02-28T04:12:25;8.50;47.80
43963;DHT22;29622;45.534;9.242;2023-02-28T04:17:26;8.30;47.70
43963;DHT22;29622;45.534;9.242;2023-02-28T04:22:27;8.30;47.80
43963;DHT22;29622;45.534;9.242;2023-02-28T04:27:28;8.40;47.70
43963;DHT22;29622;45.534;9.242;2023-02-28T04:32:28;8.40;47.60
43963;DHT22;29622;45.534;9.242;2023-02-28T04:37:29;8.20;47.50
43963;DHT22;29622;45.534;9.242;2023-02-28T04:42:30;8.20;47.70
43963;DHT22;29622;45.534;9.242;2023-02-28T04:47:36;8.20;47.70
43963;DHT22;29622;45.534;9.242;2023-02-28T04:52:37;8.30;47.80
43963;DHT22;29622;45.534;9.242;2023-02-28T04:57:37;8.40;47.60
43963;DHT22;29622;45.534;9.242;2023-02-28T05:02:38;8.40;47.40
43963;DHT22;29622;45.534;9.242;2023-02-28T05:07:39;8.40;47.40
43963;DHT22;29622;45.534;9.242;2023-02-28T05:12:40;8.40;47.50
43963;DHT22;29622;45.534;9.242;2023-02-28T05:17:41;8.70;48.00
43963;DHT22;29622;45.534;9.242;2023-02-28T05:22:42;8.90;47.80
43963;DHT22;29622;45.534;9.242;2023-02-28T05:27:43;8.90;47.80
43963;DHT22;29622;45.534;9.242;2023-02-28T05:32:43;8.70;47.70
43963;DHT22;29622;45.534;9.242;2023-02-28T05:37:44;8.50;47.60
43963;DHT22;29622;45.534;9.242;2023-02-28T05:42:45;8.50;47.90
43963;DHT22;29622;45.534;9.242;2023-02-28T05:47:45;8.70;47.90
43963;DHT22;29622;45.534;9.242;2023-02-28T05:52:50;8.80;47.60
43963;DHT22;29622;45.534;9.242;2023-02-28T05:57:50;8.70;47.30
43963;DHT22;29622;45.534;9.242;2023-02-28T06:02:51;8.40;47.60
43963;DHT22;29622;45.534;9.242;2023-02-28T06:07:56;8.30;47.90
43963;DHT22;29622;45.534;9.242;2023-02-28T06:13:00;8.20;47.90
43963;DHT22;29622;45.534;9.242;2023-02-28T06:18:02;8.10;48.00
43963;DHT22;29622;45.534;9.242;2023-02-28T06:23:03;8.00;48.20
43963;DHT22;29622;45.534;9.242;2023-02-28T06:28:04;8.00;48.30
43963;DHT22;29622;45.534;9.242;2023-02-28T06:33:04;8.00;48.20
43963;DHT22;29622;45.534;9.242;2023-02-28T06:38:05;8.00;48.40
43963;DHT22;29622;45.534;9.242;2023-02-28T06:43:06;8.00;48.50
43963;DHT22;29622;45.534;9.242;2023-02-28T06:48:07;8.10;49.10
43963;DHT22;29622;45.534;9.242;2023-02-28T06:53:07;8.90;49.80
43963;DHT22;29622;45.534;9.242;2023-02-28T06:58:08;8.80;49.00
43963;DHT22;29622;45.534;9.242;2023-02-28T07:03:29;8.60;49.10
43963;DHT22;29622;45.534;9.242;2023-02-28T07:08:30;8.50;49.10
43963;DHT22;29622;45.534;9.242;2023-02-28T07:13:32;8.40;49.10
43963;DHT22;29622;45.534;9.242;2023-02-28T07:18:42;8.60;49.80
43963;DHT22;29622;45.534;9.242;2023-02-28T07:23:58;8.70;49.60
43963;DHT22;29622;45.534;9.242;2023-02-28T07:28:59;8.80;50.00
43963;DHT22;29622;45.534;9.242;2023-02-28T07:34:09;8.70;49.80
43963;DHT22;29622;45.534;9.242;2023-02-28T07:39:20;8.70;49.60
43963;DHT22;29622;45.534;9.242;2023-02-28T07:44:22;8.40;49.50
43963;DHT22;29622;45.534;9.242;2023-02-28T07:49:23;8.20;49.80
43963;DHT22;29622;45.534;9.242;2023-02-28T07:54:24;8.30;49.90
43963;DHT22;29622;45.534;9.242;2023-02-28T07:59:25;8.60;50.10
43963;DHT22;29622;45.534;9.242;2023-02-28T08:04:26;8.80;49.70
43963;DHT22;29622;45.534;9.242;2023-02-28T08:09:27;9.00;49.70
43963;DHT22;29622;45.534;9.242;2023-02-28T08:14:31;9.20;49.40
43963;DHT22;29622;45.534;9.242;2023-02-28T08:19:38;9.60;49.70
43963;DHT22;29622;45.534;9.242;2023-02-28T08:24:41;10.30;49.40
43963;DHT22;29622;45.534;9.242;2023-02-28T08:29:55;11.00;48.80
43963;DHT22;29622;45.534;9.242;2023-02-28T08:34:56;11.50;48.20
43963;DHT22;29622;45.534;9.242;2023-02-28T08:40:03;12.00;48.00
43963;DHT22;29622;45.534;9.242;2023-02-28T08:45:05;12.70;47.90
43963;DHT22;29622;45.534;9.242;2023-02-28T08:50:07;13.60;48.40
43963;DHT22;29622;45.534;9.242;2023-02-28T08:55:09;14.40;47.40
43963;DHT22;29622;45.534;9.242;2023-02-28T09:00:10;14.70;46.10
43963;DHT22;29622;45.534;9.242;2023-02-28T09:05:15;14.50;46.80
43963;DHT22;29622;45.534;9.242;2023-02-28T09:10:25;14.30;47.20
43963;DHT22;29622;45.534;9.242;2023-02-28T09:15:26;14.10;47.60
43963;DHT22;29622;45.534;9.242;2023-02-28T09:20:27;13.90;46.20
43963;DHT22;29622;45.534;9.242;2023-02-28T09:25:28;13.00;46.20
43963;DHT22;29622;45.534;9.242;2023-02-28T09:30:29;12.90;46.70
43963;DHT22;29622;45.534;9.242;2023-02-28T09:35:34;13.10;47.70
43963;DHT22;29622;45.534;9.242;2023-02-28T09:41:09;13.60;48.00
43963;DHT22;29622;45.534;9.242;2023-02-28T09:47:19;13.30;45.80
43963;DHT22;29622;45.534;9.242;2023-02-28T09:53:02;12.70;45.60
43963;DHT22;29622;45.534;9.242;2023-02-28T10:04:07;12.10;46.10
43963;DHT22;29622;45.534;9.242;2023-02-28T10:09:29;11.70;45.90
43963;DHT22;29622;45.534;9.242;2023-02-28T10:14:49;11.60;45.70
43963;DHT22;29622;45.534;9.242;2023-02-28T10:20:32;11.90;45.80
43963;DHT22;29622;45.534;9.242;2023-02-28T10:25:39;11.90;45.20
43963;DHT22;29622;45.534;9.242;2023-02-28T10:30:43;12.10;45.60
43963;DHT22;29622;45.534;9.242;2023-02-28T10:35:45;12.40;45.00
43963;DHT22;29622;45.534;9.242;2023-02-28T10:40:47;13.00;45.50
43963;DHT22;29622;45.534;9.242;2023-02-28T10:46:04;13.70;44.10
43963;DHT22;29622;45.534;9.242;2023-02-28T10:51:12;13.80;44.20
43963;DHT22;29622;45.534;9.242;2023-02-28T10:56:20;14.00;44.40
43963;DHT22;29622;45.534;9.242;2023-02-28T11:01:24;15.00;45.20
43963;DHT22;29622;45.534;9.242;2023-02-28T11:06:33;15.80;43.60
43963;DHT22;29622;45.534;9.242;2023-02-28T11:11:44;15.60;43.20
43963;DHT22;29622;45.534;9.242;2023-02-28T11:16:45;15.30;43.60
43963;DHT22;29622;45.534;9.242;2023-02-28T11:21:55;13.60;43.50
43963;DHT22;29622;45.534;9.242;2023-02-28T11:26:57;12.40;45.30
43963;DHT22;29622;45.534;9.242;2023-02-28T11:37:16;12.10;44.80
43963;DHT22;29622;45.534;9.242;2023-02-28T11:48:21;11.80;45.60
43963;DHT22;29622;45.534;9.242;2023-02-28T11:59:15;12.90;44.20
43963;DHT22;29622;45.534;9.242;2023-02-28T12:10:04;13.40;46.40
43963;DHT22;29622;45.534;9.242;2023-02-28T12:20:59;14.20;46.00
43963;DHT22;29622;45.534;9.242;2023-02-28T12:31:40;13.90;45.50
43963;DHT22;29622;45.534;9.242;2023-02-28T12:36:44;13.50;45.30
43963;DHT22;29622;45.534;9.242;2023-02-28T12:41:51;13.20;45.40
43963;DHT22;29622;45.534;9.242;2023-02-28T12:47:00;13.70;45.30
43963;DHT22;29622;45.534;9.242;2023-02-28T12:52:03;14.20;45.50
43963;DHT22;29622;45.534;9.242;2023-02-28T12:57:47;14.60;45.20
43963;DHT22;29622;45.534;9.242;2023-02-28T13:13:44;13.90;43.70
43963;DHT22;29622;45.534;9.242;2023-02-28T13:18:46;14.20;44.50
43963;DHT22;29622;45.534;9.242;2023-02-28T13:23:58;15.00;44.40
43963;DHT22;29622;45.534;9.242;2023-02-28T13:34:21;15.80;44.30
43963;DHT22;29622;45.534;9.242;2023-02-28T13:50:24;15.70;42.20
43963;DHT22;29622;45.534;9.242;2023-02-28T13:55:37;16.40;42.90
43963;DHT22;29622;45.534;9.242;2023-02-28T14:06:28;16.10;41.80
43963;DHT22;29622;45.534;9.242;2023-02-28T14:11:38;15.80;41.40
43963;DHT22;29622;45.534;9.242;2023-02-28T14:16:48;15.60;41.60
43963;DHT22;29622;45.534;9.242;2023-02-28T14:32:33;15.40;41.60
43963;DHT22;29622;45.534;9.242;2023-02-28T14:37:38;15.00;41.90
43963;DHT22;29622;45.534;9.242;2023-02-28T14:42:47;15.30;43.10
43963;DHT22;29622;45.534;9.242;2023-02-28T14:47:50;15.50;42.50
43963;DHT22;29622;45.534;9.242;2023-02-28T14:52:53;16.10;42.80
43963;DHT22;29622;45.534;9.242;2023-02-28T14:57:57;15.90;42.70
43963;DHT22;29622;45.534;9.242;2023-02-28T15:03:00;15.60;43.60
43963;DHT22;29622;45.534;9.242;2023-02-28T15:08:14;15.80;43.00
43963;DHT22;29622;45.534;9.242;2023-02-28T15:13:15;15.90;42.70
43963;DHT22;29622;45.534;9.242;2023-02-28T15:23:29;16.20;44.00
43963;DHT22;29622;45.534;9.242;2023-02-28T15:28:31;16.90;43.90
43963;DHT22;29622;45.534;9.242;2023-02-28T15:33:33;17.30;42.80
43963;DHT22;29622;45.534;9.242;2023-02-28T15:38:36;17.30;41.00
43963;DHT22;29622;45.534;9.242;2023-02-28T15:43:38;17.00;41.10
43963;DHT22;29622;45.534;9.242;2023-02-28T15:48:45;17.30;41.70
43963;DHT22;29622;45.534;9.242;2023-02-28T15:53:54;17.70;41.00
43963;DHT22;29622;45.534;9.242;2023-02-28T15:59:05;17.90;40.00
43963;DHT22;29622;45.534;9.242;2023-02-28T16:04:19;17.80;39.20
43963;DHT22;29622;45.534;9.242;2023-02-28T16:09:20;17.60;38.60
43963;DHT22;29622;45.534;9.242;2023-02-28T16:14:26;17.30;38.80
43963;DHT22;29622;45.534;9.242;2023-02-28T16:19:28;16.80;38.90
43963;DHT22;29622;45.534;9.242;2023-02-28T16:24:32;16.70;38.80
43963;DHT22;29622;45.534;9.242;2023-02-28T16:29:42;16.30;38.70
43963;DHT22;29622;45.534;9.242;2023-02-28T16:34:46;16.50;38.40
43963;DHT22;29622;45.534;9.242;2023-02-28T16:39:51;16.70;38.10
43963;DHT22;29622;45.534;9.242;2023-02-28T16:44:53;16.20;37.60
43963;DHT22;29622;45.534;9.242;2023-02-28T16:49:54;15.10;38.30
43963;DHT22;29622;45.534;9.242;2023-02-28T16:54:55;14.10;39.10
43963;DHT22;29622;45.534;9.242;2023-02-28T16:59:57;13.30;39.70
43963;DHT22;29622;45.534;9.242;2023-02-28T17:04:58;12.80;40.10
43963;DHT22;29622;45.534;9.242;2023-02-28T17:09:59;12.60;40.30
43963;DHT22;29622;45.534;9.242;2023-02-28T17:15:13;12.30;40.50
43963;DHT22;29622;45.534;9.242;2023-02-28T17:20:16;12.20;40.70
43963;DHT22;29622;45.534;9.242;2023-02-28T17:25:18;12.20;40.80
43963;DHT22;29622;45.534;9.242;2023-02-28T17:30:25;12.00;40.80
43963;DHT22;29622;45.534;9.242;2023-02-28T17:35:29;12.00;41.00
43963;DHT22;29622;45.534;9.242;2023-02-28T17:40:31;12.10;41.70
43963;DHT22;29622;45.534;9.242;2023-02-28T17:45:32;12.00;41.50
43963;DHT22;29622;45.534;9.242;2023-02-28T17:50:35;12.30;42.00
43963;DHT22;29622;45.534;9.242;2023-02-28T17:55:38;12.10;41.40
43963;DHT22;29622;45.534;9.242;2023-02-28T18:00:39;11.90;42.10
43963;DHT22;29622;45.534;9.242;2023-02-28T18:05:40;11.50;42.00
43963;DHT22;29622;45.534;9.242;2023-02-28T18:10:41;11.30;42.20
43963;DHT22;29622;45.534;9.242;2023-02-28T18:15:42;11.10;42.30
43963;DHT22;29622;45.534;9.242;2023-02-28T18:20:43;11.00;42.50
43963;DHT22;29622;45.534;9.242;2023-02-28T18:25:44;11.00;42.70
43963;DHT22;29622;45.534;9.242;2023-02-28T18:30:45;11.00;42.80
43963;DHT22;29622;45.534;9.242;2023-02-28T18:35:55;11.00;42.90
43963;DHT22;29622;45.534;9.242;2023-02-28T18:40:56;11.00;43.10
43963;DHT22;29622;45.534;9.242;2023-02-28T18:46:07;10.90;43.30
43963;DHT22;29622;45.534;9.242;2023-02-28T18:51:13;10.80;43.40
43963;DHT22;29622;45.534;9.242;2023-02-28T18:56:16;10.90;43.40
43963;DHT22;29622;45.534;9.242;2023-02-28T19:01:24;10.70;43.60
43963;DHT22;29622;45.534;9.242;2023-02-28T19:06:32;10.50;43.80
43963;DHT22;29622;45.534;9.242;2023-02-28T19:11:34;10.20;44.10
43963;DHT22;29622;45.534;9.242;2023-02-28T19:16:35;10.20;44.30
43963;DHT22;29622;45.534;9.242;2023-02-28T19:21:35;10.10;44.40
43963;DHT22;29622;45.534;9.242;2023-02-28T19:26:36;9.90;44.60
43963;DHT22;29622;45.534;9.242;2023-02-28T19:31:37;9.70;44.90
43963;DHT22;29622;45.534;9.242;2023-02-28T19:36:37;9.60;45.00
43963;DHT22;29622;45.534;9.242;2023-02-28T19:41:38;9.60;45.20
43963;DHT22;29622;45.534;9.242;2023-02-28T19:46:39;9.50;45.40
43963;DHT22;29622;45.534;9.242;2023-02-28T19:51:39;9.40;45.70
43963;DHT22;29622;45.534;9.242;2023-02-28T19:56:40;9.30;45.80
43963;DHT22;29622;45.534;9.242;2023-02-28T20:01:41;9.30;46.00
43963;DHT22;29622;45.534;9.242;2023-02-28T20:06:42;9.30;46.00
43963;DHT22;29622;45.534;9.242;2023-02-28T20:11:43;9.30;46.10
43963;DHT22;29622;45.534;9.242;2023-02-28T20:16:44;9.20;46.30
43963;DHT22;29622;45.534;9.242;2023-02-28T20:21:45;9.20;46.40
43963;DHT22;29622;45.534;9.242;2023-02-28T20:26:46;9.10;46.60
43963;DHT22;29622;45.534;9.242;2023-02-28T20:31:46;9.10;46.70
43963;DHT22;29622;45.534;9.242;2023-02-28T20:36:48;9.00;46.80
43963;DHT22;29622;45.534;9.242;2023-02-28T20:41:48;9.00;47.50
43963;DHT22;29622;45.534;9.242;2023-02-28T20:46:49;8.90;47.00
43963;DHT22;29622;45.534;9.242;2023-02-28T20:51:50;8.80;47.60
43963;DHT22;29622;45.534;9.242;2023-02-28T20:56:51;8.80;47.30
43963;DHT22;29622;45.534;9.242;2023-02-28T21:01:51;8.80;47.40
43963;DHT22;29622;45.534;9.242;2023-02-28T21:06:52;8.80;47.50
43963;DHT22;29622;45.534;9.242;2023-02-28T21:11:53;8.70;47.50
43963;DHT22;29622;45.534;9.242;2023-02-28T21:16:54;8.70;48.00
43963;DHT22;29622;45.534;9.242;2023-02-28T21:21:55;8.70;47.70
43963;DHT22;29622;45.534;9.242;2023-02-28T21:26:56;8.70;47.80
43963;DHT22;29622;45.534;9.242;2023-02-28T21:32:00;8.70;47.90
43963;DHT22;29622;45.534;9.242;2023-02-28T21:37:01;8.70;47.90
43963;DHT22;29622;45.534;9.242;2023-02-28T21:42:02;8.70;48.00
43963;DHT22;29622;45.534;9.242;2023-02-28T21:47:03;8.60;48.10
43963;DHT22;29622;45.534;9.242;2023-02-28T21:52:04;8.60;48.30
43963;DHT22;29622;45.534;9.242;2023-02-28T21:57:05;8.50;48.40
43963;DHT22;29622;45.534;9.242;2023-02-28T22:02:08;8.40;48.50
43963;DHT22;29622;45.534;9.242;2023-02-28T22:07:10;8.40;48.80
43963;DHT22;29622;45.534;9.242;2023-02-28T22:12:10;8.40;48.90
43963;DHT22;29622;45.534;9.242;2023-02-28T22:17:11;8.40;48.90
43963;DHT22;29622;45.534;9.242;2023-02-28T22:22:11;8.50;48.80
43963;DHT22;29622;45.534;9.242;2023-02-28T22:27:12;8.40;48.80
43963;DHT22;29622;45.534;9.242;2023-02-28T22:32:13;8.40;49.00
43963;DHT22;29622;45.534;9.242;2023-02-28T22:37:14;8.30;49.10
43963;DHT22;29622;45.534;9.242;2023-02-28T22:42:15;8.20;49.20
43963;DHT22;29622;45.534;9.242;2023-02-28T22:47:15;8.10;49.30
43963;DHT22;29622;45.534;9.242;2023-02-28T22:52:16;8.00;49.40
43963;DHT22;29622;45.534;9.242;2023-02-28T22:57:17;8.00;49.50
43963;DHT22;29622;45.534;9.242;2023-02-28T23:02:17;8.00;49.60
43963;DHT22;29622;45.534;9.242;2023-02-28T23:07:18;7.90;49.70
43963;DHT22;29622;45.534;9.242;2023-02-28T23:12:19;8.00;49.70
43963;DHT22;29622;45.534;9.242;2023-02-28T23:17:19;8.00;49.70
43963;DHT22;29622;45.534;9.242;2023-02-28T23:22:20;8.00;49.70
43963;DHT22;29622;45.534;9.242;2023-02-28T23:27:21;8.00;49.80
43963;DHT22;29622;45.534;9.242;2023-02-28T23:32:21;8.00;49.80
43963;DHT22;29622;45.534;9.242;2023-02-28T23:37:22;8.00;49.90
43963;DHT22;29622;45.534;9.242;2023-02-28T23:42:23;7.90;49.90
43963;DHT22;29622;45.534;9.242;2023-02-28T23:47:23;7.90;50.00
43963;DHT22;29622;45.534;9.242;2023-02-28T23:52:24;8.00;50.00
43963;DHT22;29622;45.534;9.242;2023-02-28T23:57:25;8.10;50.10
